Time;durP1;ratioP1;P1;durP2;ratioP2;P2;SDS_P1;SDS_P2;PMS_P1;PMS_P2;Temp;Humidity;BMP_temperature;BMP_pressure;BME280_temperature;BME280_humidity;BME280_pressure;Samples;Min_cycle;Max_cycle;Signal;HPM_P1;HPM_P2
2022/10/09 00:00:39;;;;;;;5.27;4.37;;;10.60;1.00;;;;;;5049010;28;20713;-55
2022/10/09 00:03:05;;;;;;;6.97;4.80;;;10.50;1.00;;;;;;5042010;28;20460;-55
2022/10/09 00:05:30;;;;;;;4.63;3.90;;;10.50;1.00;;;;;;5041302;28;20809;-55
2022/10/09 00:07:56;;;;;;;5.67;4.70;;;10.50;1.00;;;;;;5047078;28;20452;-55
2022/10/09 00:10:22;;;;;;;6.53;5.07;;;10.40;1.00;;;;;;5043968;28;20260;-55
2022/10/09 00:12:48;;;;;;;4.20;3.77;;;10.40;1.00;;;;;;5047856;28;20229;-56
2022/10/09 00:15:13;;;;;;;4.70;4.30;;;10.40;1.00;;;;;;5047754;28;20189;-56
2022/10/09 00:17:39;;;;;;;5.27;4.00;;;10.30;1.00;;;;;;5041980;28;20608;-54
2022/10/09 00:20:05;;;;;;;6.30;4.47;;;10.20;1.00;;;;;;5050915;28;20661;-53
2022/10/09 00:22:31;;;;;;;9.80;5.30;;;10.30;1.00;;;;;;5045477;28;20243;-56
2022/10/09 00:24:57;;;;;;;5.47;4.10;;;10.30;1.00;;;;;;5049140;28;20436;-51
2022/10/09 00:27:22;;;;;;;6.10;3.70;;;10.30;1.00;;;;;;5050596;28;20195;-55
2022/10/09 00:29:48;;;;;;;4.50;3.33;;;10.30;1.00;;;;;;5047246;28;20554;-53
2022/10/09 00:32:14;;;;;;;4.30;3.90;;;10.30;1.00;;;;;;5047067;28;20773;-54
2022/10/09 00:34:40;;;;;;;4.40;4.00;;;10.20;1.00;;;;;;5053539;28;20489;-56
2022/10/09 00:37:05;;;;;;;6.73;4.43;;;10.20;1.00;;;;;;5041803;28;20191;-56
2022/10/09 00:39:31;;;;;;;5.07;3.97;;;10.20;1.00;;;;;;5042774;28;20233;-54
2022/10/09 00:41:57;;;;;;;4.83;4.43;;;10.10;1.00;;;;;;5041678;28;20418;-56
2022/10/09 00:44:58;;;;;;;5.10;4.10;;;10.10;1.00;;;;;;5050576;28;20755;-52
2022/10/09 00:47:46;;;;;;;5.27;3.67;;;10.10;1.00;;;;;;5046814;28;20229;-53
2022/10/09 00:50:20;;;;;;;7.80;4.40;;;10.10;1.00;;;;;;5048854;28;20539;-54
2022/10/09 00:52:49;;;;;;;4.53;4.10;;;10.10;1.00;;;;;;5045339;28;20472;-55
2022/10/09 00:55:15;;;;;;;4.90;4.30;;;10.10;1.00;;;;;;5045427;28;20450;-53
2022/10/09 00:57:41;;;;;;;5.47;4.23;;;10.00;1.00;;;;;;5047370;28;20848;-52
2022/10/09 01:00:10;;;;;;;7.60;4.30;;;10.00;1.00;;;;;;5043848;28;20445;-54
2022/10/09 01:02:36;;;;;;;4.60;4.20;;;10.00;1.00;;;;;;5046592;28;20445;-53
2022/10/09 01:05:03;;;;;;;5.77;4.60;;;10.00;1.00;;;;;;5045919;28;21259;-54
2022/10/09 01:07:38;;;;;;;6.97;5.10;;;9.90;1.00;;;;;;5045004;28;20450;-54
2022/10/09 01:10:24;;;;;;;6.40;4.93;;;10.00;1.00;;;;;;5044898;28;20441;-55
2022/10/09 01:12:59;;;;;;;6.33;4.67;;;9.90;1.00;;;;;;5042916;28;20519;-52
2022/10/09 01:15:34;;;;;;;5.83;4.63;;;9.90;1.00;;;;;;5047148;28;20973;-54
2022/10/09 01:18:41;;;;;;;6.33;4.73;;;9.90;1.00;;;;;;5043920;28;20857;-56
2022/10/09 01:21:39;;;;;;;7.90;4.70;;;9.90;1.00;;;;;;5042909;28;20453;-55
2022/10/09 01:24:23;;;;;;;4.97;4.50;;;9.80;1.00;;;;;;5042228;28;20455;-55
2022/10/09 01:27:02;;;;;;;7.00;4.97;;;9.80;1.00;;;;;;5042432;28;20413;-53
2022/10/09 01:29:53;;;;;;;8.63;4.83;;;9.90;1.00;;;;;;5042170;28;20458;-52
2022/10/09 01:32:23;;;;;;;5.47;4.07;;;9.80;1.00;;;;;;5052054;28;20474;-53
2022/10/09 01:34:51;;;;;;;7.80;4.93;;;9.80;1.00;;;;;;5048197;28;20525;-54
2022/10/09 01:37:19;;;;;;;7.10;4.30;;;9.80;1.00;;;;;;5032746;28;20453;-53
2022/10/09 01:39:45;;;;;;;5.87;4.07;;;9.80;1.00;;;;;;5046109;28;20450;-54
2022/10/09 01:42:12;;;;;;;6.10;4.53;;;9.70;1.00;;;;;;5043585;28;20854;-52
2022/10/09 01:44:38;;;;;;;4.77;4.37;;;9.80;1.00;;;;;;5043622;28;20567;-55
2022/10/09 01:47:04;;;;;;;6.67;4.13;;;9.80;1.00;;;;;;5041512;28;20450;-55
2022/10/09 01:49:52;;;;;;;6.10;4.83;;;9.70;1.00;;;;;;5042755;28;20641;-54
2022/10/09 01:52:29;;;;;;;6.63;5.00;;;9.60;1.00;;;;;;5041990;28;20559;-55
2022/10/09 01:55:20;;;;;;;5.23;4.67;;;9.60;1.00;;;;;;5044895;28;20438;-54
2022/10/09 01:57:55;;;;;;;5.20;4.30;;;9.60;1.00;;;;;;5043061;28;20420;-56
2022/10/09 02:00:21;;;;;;;4.50;4.00;;;9.50;1.00;;;;;;5037477;28;20449;-54
2022/10/09 02:02:48;;;;;;;4.73;4.33;;;9.50;1.00;;;;;;5045621;28;20446;-54
2022/10/09 02:05:23;;;;;;;10.40;5.43;;;9.50;1.00;;;;;;5047018;28;20450;-55
2022/10/09 02:07:49;;;;;;;5.70;5.20;;;9.50;1.00;;;;;;5043462;28;21902;-53
2022/10/09 02:10:17;;;;;;;6.03;5.23;;;9.60;1.00;;;;;;5045431;28;20453;-54
2022/10/09 02:12:49;;;;;;;7.07;4.50;;;9.50;1.00;;;;;;5045477;28;20571;-53
2022/10/09 02:15:15;;;;;;;6.03;5.07;;;9.50;1.00;;;;;;5049609;28;20469;-55
2022/10/09 02:17:46;;;;;;;5.80;4.90;;;9.50;1.00;;;;;;5045513;28;21093;-53
2022/10/09 02:20:35;;;;;;;9.43;4.97;;;9.40;1.00;;;;;;5047462;28;20533;-53
2022/10/09 02:23:05;;;;;;;5.50;4.50;;;9.40;1.00;;;;;;5039936;28;20450;-54
2022/10/09 02:25:31;;;;;;;4.97;4.37;;;9.30;1.00;;;;;;5041187;28;20453;-54
2022/10/09 02:27:57;;;;;;;6.37;4.90;;;9.30;1.00;;;;;;5039198;28;20922;-55
2022/10/09 02:30:25;;;;;;;7.90;5.83;;;9.40;1.00;;;;;;5045353;28;20448;-55
2022/10/09 02:32:54;;;;;;;6.37;5.23;;;9.40;1.00;;;;;;5044829;28;20469;-53
2022/10/09 02:35:20;;;;;;;7.47;4.87;;;9.30;1.00;;;;;;5044438;28;20451;-54
2022/10/09 02:37:47;;;;;;;5.40;4.37;;;9.40;1.00;;;;;;5046032;28;20554;-54
2022/10/09 02:40:14;;;;;;;6.90;5.30;;;9.40;1.00;;;;;;5046378;28;20516;-54
2022/10/09 02:42:39;;;;;;;5.83;5.20;;;9.40;1.00;;;;;;5047391;28;20443;-55
2022/10/09 02:45:07;;;;;;;6.07;5.17;;;9.30;1.00;;;;;;5043862;28;20525;-56
2022/10/09 02:47:32;;;;;;;7.07;4.97;;;9.40;1.00;;;;;;5040699;28;20213;-55
2022/10/09 02:49:58;;;;;;;7.67;4.63;;;9.30;1.00;;;;;;5047527;28;20453;-54
2022/10/09 02:52:23;;;;;;;5.97;4.70;;;9.30;1.00;;;;;;5047866;28;20299;-56
2022/10/09 02:54:49;;;;;;;10.20;5.13;;;9.30;1.00;;;;;;5046435;28;20192;-54
2022/10/09 02:57:14;;;;;;;5.43;4.93;;;9.30;1.00;;;;;;5043701;28;20721;-55
2022/10/09 02:59:40;;;;;;;5.47;4.47;;;9.30;1.00;;;;;;5043155;28;20713;-54
2022/10/09 03:02:06;;;;;;;5.10;4.00;;;9.20;1.00;;;;;;5042671;28;20198;-55
2022/10/09 03:04:31;;;;;;;8.13;4.10;;;9.20;1.00;;;;;;5043344;28;20208;-54
2022/10/09 03:06:57;;;;;;;7.23;4.80;;;9.20;1.00;;;;;;5042565;28;20220;-55
2022/10/09 03:09:23;;;;;;;7.57;4.57;;;9.20;1.00;;;;;;5042618;28;20207;-55
2022/10/09 03:11:49;;;;;;;4.43;4.03;;;9.10;1.00;;;;;;5043733;28;20473;-54
2022/10/09 03:14:14;;;;;;;4.87;4.30;;;9.10;1.00;;;;;;5041151;28;20184;-55
2022/10/09 03:16:40;;;;;;;5.80;4.53;;;9.10;1.00;;;;;;5042716;28;20639;-54
2022/10/09 03:19:06;;;;;;;6.00;4.10;;;9.00;1.00;;;;;;5037782;28;20220;-54
2022/10/09 03:21:31;;;;;;;4.50;4.10;;;9.10;1.00;;;;;;5035720;28;20206;-56
2022/10/09 03:23:57;;;;;;;4.90;4.40;;;9.10;1.00;;;;;;5042844;28;20448;-54
2022/10/09 03:26:25;;;;;;;5.57;4.63;;;9.00;1.00;;;;;;5044563;28;20678;-54
2022/10/09 03:28:52;;;;;;;5.70;4.17;;;9.00;1.00;;;;;;5046470;28;20184;-55
2022/10/09 03:31:20;;;;;;;6.40;4.60;;;9.10;1.00;;;;;;5045750;28;20510;-54
2022/10/09 03:33:46;;;;;;;4.40;3.73;;;9.10;1.00;;;;;;5043605;28;20450;-55
2022/10/09 03:36:12;;;;;;;7.10;5.07;;;9.00;1.00;;;;;;5044793;28;20454;-54
2022/10/09 03:38:38;;;;;;;4.90;4.50;;;9.00;1.00;;;;;;5051690;28;20684;-55
2022/10/09 03:41:05;;;;;;;5.60;4.37;;;9.00;1.00;;;;;;5049677;28;20204;-54
2022/10/09 03:43:31;;;;;;;5.57;4.60;;;9.00;1.00;;;;;;5052623;28;20999;-56
2022/10/09 03:45:57;;;;;;;6.10;4.47;;;8.90;1.00;;;;;;5049104;28;21017;-55
2022/10/09 03:48:23;;;;;;;6.30;4.57;;;8.90;1.00;;;;;;5042324;28;20453;-53
2022/10/09 03:50:49;;;;;;;4.57;4.13;;;8.90;1.00;;;;;;5048213;28;20492;-54
2022/10/09 03:53:16;;;;;;;9.70;4.77;;;8.90;1.00;;;;;;5050271;28;20860;-55
2022/10/09 03:55:42;;;;;;;5.90;3.13;;;8.80;1.00;;;;;;5048567;28;20181;-55
2022/10/09 03:58:08;;;;;;;7.20;4.17;;;8.80;1.00;;;;;;5043304;28;20447;-54
2022/10/09 04:00:34;;;;;;;7.17;4.77;;;8.80;1.00;;;;;;5050078;28;20203;-54
2022/10/09 04:03:00;;;;;;;6.67;5.50;;;8.80;1.00;;;;;;5044911;28;20534;-53
2022/10/09 04:05:26;;;;;;;6.00;4.53;;;8.80;1.00;;;;;;5043440;28;20571;-54
2022/10/09 04:07:52;;;;;;;4.97;4.10;;;8.80;1.00;;;;;;5046405;28;20190;-54
2022/10/09 04:10:17;;;;;;;5.33;4.83;;;8.80;1.00;;;;;;5045548;28;20458;-55
2022/10/09 04:12:43;;;;;;;5.63;4.30;;;8.70;1.00;;;;;;5045125;28;20728;-54
2022/10/09 04:15:09;;;;;;;5.70;4.33;;;8.80;1.00;;;;;;5047693;28;20202;-54
2022/10/09 04:17:35;;;;;;;6.47;4.07;;;8.80;1.00;;;;;;5048855;28;20200;-54
2022/10/09 04:20:01;;;;;;;5.13;4.63;;;8.80;1.00;;;;;;5047859;28;20450;-55
2022/10/09 04:22:26;;;;;;;12.77;4.43;;;8.70;1.00;;;;;;5040510;28;20841;-55
2022/10/09 04:24:52;;;;;;;6.17;5.10;;;8.70;1.00;;;;;;5041124;28;20286;-54
2022/10/09 04:27:18;;;;;;;4.77;3.90;;;8.70;1.00;;;;;;5042636;28;20340;-53
2022/10/09 04:29:43;;;;;;;5.97;4.47;;;8.60;1.00;;;;;;5041942;28;20778;-55
2022/10/09 04:32:09;;;;;;;4.40;3.67;;;8.60;1.00;;;;;;5045697;28;20227;-55
2022/10/09 04:34:34;;;;;;;4.23;3.83;;;8.60;1.00;;;;;;5042947;28;20218;-55
2022/10/09 04:37:00;;;;;;;4.90;4.20;;;8.60;1.00;;;;;;5043275;28;20186;-54
2022/10/09 04:39:25;;;;;;;4.77;3.90;;;8.60;1.00;;;;;;5041628;28;20187;-54
2022/10/09 04:41:51;;;;;;;6.80;4.53;;;8.60;1.00;;;;;;5046850;28;20183;-54
2022/10/09 04:44:17;;;;;;;6.13;4.80;;;8.50;1.00;;;;;;5044810;28;21942;-55
2022/10/09 04:46:42;;;;;;;5.37;4.37;;;8.50;1.00;;;;;;5044020;28;20199;-54
2022/10/09 04:49:12;;;;;;;4.50;3.97;;;8.50;1.00;;;;;;5047278;28;20186;-56
2022/10/09 04:51:38;;;;;;;4.60;4.10;;;8.50;1.00;;;;;;5045919;28;20216;-54
2022/10/09 04:54:04;;;;;;;6.90;4.50;;;8.50;1.00;;;;;;5044406;28;20456;-53
2022/10/09 04:56:29;;;;;;;4.73;3.90;;;8.50;1.00;;;;;;5046276;28;20461;-53
2022/10/09 04:58:55;;;;;;;4.90;4.20;;;8.40;1.00;;;;;;5048219;28;20305;-53
2022/10/09 05:01:25;;;;;;;4.50;3.90;;;8.40;1.00;;;;;;5045622;28;20195;-53
2022/10/09 05:03:52;;;;;;;7.83;4.40;;;8.40;1.00;;;;;;5048602;28;20187;-55
2022/10/09 05:06:19;;;;;;;5.77;4.20;;;8.40;1.00;;;;;;5045240;28;20543;-53
2022/10/09 05:08:45;;;;;;;5.03;3.97;;;8.40;1.00;;;;;;5046800;28;20564;-54
2022/10/09 05:11:16;;;;;;;4.53;4.00;;;8.40;1.00;;;;;;5047118;28;20508;-54
2022/10/09 05:13:44;;;;;;;5.20;4.33;;;8.30;1.00;;;;;;5046338;28;20442;-55
2022/10/09 05:16:13;;;;;;;3.60;3.30;;;8.40;1.00;;;;;;5053217;28;20452;-53
2022/10/09 05:18:52;;;;;;;3.97;3.63;;;8.30;1.00;;;;;;5052245;28;20443;-53
2022/10/09 05:21:18;;;;;;;5.03;3.83;;;8.30;1.00;;;;;;5047418;28;20416;-54
2022/10/09 05:23:44;;;;;;;5.67;3.60;;;8.40;1.00;;;;;;5041502;28;20436;-53
2022/10/09 05:26:12;;;;;;;5.90;3.83;;;8.40;1.00;;;;;;5044268;28;20465;-55
2022/10/09 05:28:38;;;;;;;4.47;3.90;;;8.30;1.00;;;;;;5040653;28;20538;-54
2022/10/09 05:31:05;;;;;;;5.27;3.73;;;8.30;1.00;;;;;;5038093;28;20879;-53
2022/10/09 05:33:31;;;;;;;3.90;3.50;;;8.30;1.00;;;;;;5043431;28;20223;-55
2022/10/09 05:35:59;;;;;;;3.97;3.60;;;8.30;1.00;;;;;;5042991;28;20606;-54
2022/10/09 05:38:26;;;;;;;3.80;3.47;;;8.30;1.00;;;;;;5044371;28;20191;-54
2022/10/09 05:41:00;;;;;;;5.07;4.50;;;8.40;1.00;;;;;;5054269;28;20515;-55
2022/10/09 05:43:28;;;;;;;7.13;4.20;;;8.50;1.00;;;;;;5051868;28;20578;-53
2022/10/09 05:45:54;;;;;;;3.67;3.27;;;8.50;1.00;;;;;;5053001;28;20449;-54
2022/10/09 05:48:21;;;;;;;6.23;4.10;;;8.50;1.00;;;;;;5047731;28;20473;-55
2022/10/09 05:50:47;;;;;;;4.37;3.53;;;8.50;1.00;;;;;;5042136;28;20190;-52
2022/10/09 05:53:13;;;;;;;5.23;3.70;;;8.40;1.00;;;;;;5045881;28;20470;-54
2022/10/09 05:55:39;;;;;;;4.27;3.73;;;8.50;1.00;;;;;;5046539;28;20978;-55
2022/10/09 05:58:04;;;;;;;5.37;3.87;;;8.50;1.00;;;;;;5044775;28;20757;-55
2022/10/09 06:00:30;;;;;;;5.67;3.53;;;8.60;1.00;;;;;;5047394;28;20250;-53
2022/10/09 06:02:56;;;;;;;3.93;3.43;;;8.60;1.00;;;;;;5043177;28;20666;-55
2022/10/09 06:05:22;;;;;;;4.63;3.00;;;8.60;1.00;;;;;;5043137;28;20465;-54
2022/10/09 06:07:48;;;;;;;5.43;3.40;;;8.50;1.00;;;;;;5046325;28;20449;-55
2022/10/09 06:10:13;;;;;;;4.20;3.80;;;8.60;1.00;;;;;;5047031;28;20225;-54
2022/10/09 06:12:39;;;;;;;5.73;3.60;;;8.60;1.00;;;;;;5044148;28;21004;-54
2022/10/09 06:15:05;;;;;;;4.47;3.10;;;8.60;1.00;;;;;;5046889;28;20195;-56
2022/10/09 06:17:32;;;;;;;3.20;2.90;;;8.60;1.00;;;;;;5043434;28;20802;-54
2022/10/09 06:19:57;;;;;;;4.40;3.67;;;8.70;1.00;;;;;;5044901;28;20507;-56
2022/10/09 06:22:23;;;;;;;5.37;3.47;;;8.90;1.00;;;;;;5042636;28;20469;-53
2022/10/09 06:24:49;;;;;;;4.70;4.30;;;8.80;1.00;;;;;;5047229;28;20245;-55
2022/10/09 06:27:14;;;;;;;4.00;3.60;;;8.90;1.00;;;;;;5042201;28;20210;-54
2022/10/09 06:29:40;;;;;;;4.27;3.87;;;8.90;1.00;;;;;;5043644;28;20198;-53
2022/10/09 06:32:05;;;;;;;6.60;3.93;;;8.90;1.00;;;;;;5046626;28;20305;-55
2022/10/09 06:34:31;;;;;;;7.10;3.50;;;9.00;1.00;;;;;;5045809;28;20221;-55
2022/10/09 06:36:56;;;;;;;3.87;3.57;;;9.00;1.00;;;;;;5040898;28;20196;-54
2022/10/09 06:39:22;;;;;;;3.70;3.40;;;9.10;1.00;;;;;;5042446;28;20192;-55
2022/10/09 06:41:47;;;;;;;4.60;3.07;;;9.20;1.00;;;;;;5046241;28;20282;-56
2022/10/09 06:44:15;;;;;;;4.27;3.60;;;9.20;1.00;;;;;;5045063;28;20242;-53
2022/10/09 06:46:42;;;;;;;6.50;3.17;;;9.30;1.00;;;;;;5045935;28;20668;-55
2022/10/09 06:49:10;;;;;;;5.57;2.73;;;9.40;1.00;;;;;;5046736;28;20434;-54
2022/10/09 06:51:36;;;;;;;3.13;2.93;;;9.40;1.00;;;;;;5042279;28;20468;-54
2022/10/09 06:54:06;;;;;;;6.03;3.03;;;9.50;1.00;;;;;;5045233;28;20478;-55
2022/10/09 06:56:32;;;;;;;3.90;3.10;;;9.60;1.00;;;;;;5045835;28;21469;-56
2022/10/09 06:59:02;;;;;;;3.50;3.07;;;9.70;1.00;;;;;;5043453;28;20419;-55
2022/10/09 07:01:30;;;;;;;5.10;3.10;;;9.80;1.00;;;;;;5044163;28;20641;-54
2022/10/09 07:03:59;;;;;;;3.60;3.30;;;9.90;1.00;;;;;;5049879;28;20446;-55
2022/10/09 07:06:27;;;;;;;5.83;3.00;;;10.10;1.00;;;;;;5053483;28;20427;-56
2022/10/09 07:08:59;;;;;;;3.30;2.93;;;10.20;1.00;;;;;;5057293;28;20449;-56
2022/10/09 07:11:31;;;;;;;3.90;2.90;;;10.30;1.00;;;;;;5050027;28;20979;-53
2022/10/09 07:13:59;;;;;;;3.80;3.50;;;10.30;1.00;;;;;;5050789;28;20868;-56
2022/10/09 07:16:27;;;;;;;3.40;3.07;;;10.40;1.00;;;;;;5048166;28;20455;-53
2022/10/09 07:18:54;;;;;;;3.03;2.57;;;10.50;1.00;;;;;;5048843;28;20869;-55
2022/10/09 07:21:20;;;;;;;3.70;2.47;;;10.50;1.00;;;;;;5052042;28;20469;-55
2022/10/09 07:23:46;;;;;;;5.70;2.90;;;10.60;1.00;;;;;;5055061;28;20966;-54
2022/10/09 07:26:14;;;;;;;3.00;2.37;;;10.70;1.00;;;;;;5055638;28;20449;-55
2022/10/09 07:28:41;;;;;;;3.20;2.90;;;10.80;1.00;;;;;;5053217;28;20524;-57
2022/10/09 07:31:07;;;;;;;3.97;2.90;;;10.70;1.00;;;;;;5052879;28;20449;-55
2022/10/09 07:33:33;;;;;;;3.77;3.37;;;10.80;1.00;;;;;;5053121;28;20503;-54
2022/10/09 07:36:00;;;;;;;3.40;2.97;;;10.80;1.00;;;;;;5052707;28;20424;-57
2022/10/09 07:38:27;;;;;;;4.00;2.90;;;11.00;1.00;;;;;;5052391;28;20442;-56
2022/10/09 07:40:53;;;;;;;3.80;3.00;;;11.20;1.00;;;;;;5059827;28;20461;-54
2022/10/09 07:43:20;;;;;;;3.10;2.80;;;11.30;1.00;;;;;;5053320;28;20451;-57
2022/10/09 07:45:46;;;;;;;4.90;3.20;;;11.40;1.00;;;;;;5052828;28;20906;-52
2022/10/09 07:48:12;;;;;;;3.07;2.80;;;11.50;1.00;;;;;;5052661;28;20449;-54
2022/10/09 07:50:38;;;;;;;3.67;2.80;;;11.60;1.00;;;;;;5053476;28;20490;-56
2022/10/09 07:53:04;;;;;;;7.03;3.93;;;11.70;1.00;;;;;;5051001;28;20561;-54
2022/10/09 07:55:29;;;;;;;6.70;3.30;;;11.90;1.00;;;;;;5051366;28;20196;-55
2022/10/09 07:57:55;;;;;;;6.03;3.30;;;12.00;1.00;;;;;;5052534;28;20183;-54
2022/10/09 08:00:21;;;;;;;2.97;2.67;;;12.20;1.00;;;;;;5052042;28;20512;-55
2022/10/09 08:02:46;;;;;;;4.50;3.20;;;12.30;1.00;;;;;;5051217;28;20198;-55
2022/10/09 08:05:12;;;;;;;3.60;3.27;;;12.50;1.00;;;;;;5049382;28;20225;-56
2022/10/09 08:07:37;;;;;;;3.90;2.87;;;12.60;1.00;;;;;;5049965;28;20257;-56
2022/10/09 08:10:04;;;;;;;3.90;2.67;;;12.80;1.00;;;;;;5050044;28;20193;-56
2022/10/09 08:12:30;;;;;;;3.60;3.03;;;12.80;1.00;;;;;;5048799;28;20233;-54
2022/10/09 08:14:55;;;;;;;5.13;3.43;;;12.90;1.00;;;;;;5050501;28;20772;-56
2022/10/09 08:17:21;;;;;;;2.90;2.40;;;12.90;1.00;;;;;;5058094;28;20212;-57
2022/10/09 08:19:46;;;;;;;3.57;2.87;;;13.10;1.00;;;;;;5048159;28;20696;-55
2022/10/09 08:22:12;;;;;;;3.80;2.80;;;13.20;1.00;;;;;;5049673;28;20268;-54
2022/10/09 08:24:38;;;;;;;4.37;3.40;;;13.30;1.00;;;;;;5053540;28;20195;-55
2022/10/09 08:27:05;;;;;;;3.13;2.83;;;13.80;1.00;;;;;;5048882;28;20542;-55
2022/10/09 08:29:30;;;;;;;3.50;2.63;;;13.50;1.00;;;;;;5050931;28;20973;-53
2022/10/09 08:31:56;;;;;;;4.23;2.67;;;13.70;1.00;;;;;;5046403;28;20547;-55
2022/10/09 08:34:22;;;;;;;4.47;2.93;;;13.80;1.00;;;;;;5050942;28;20448;-55
2022/10/09 08:36:48;;;;;;;3.73;2.80;;;13.90;1.00;;;;;;5049313;28;20638;-56
2022/10/09 08:39:14;;;;;;;4.53;3.33;;;14.00;1.00;;;;;;5048217;28;20274;-53
2022/10/09 08:41:44;;;;;;;5.30;4.37;;;14.10;1.00;;;;;;5053627;28;20502;-54
2022/10/09 08:44:18;;;;;;;3.17;2.80;;;14.20;1.00;;;;;;5051177;28;20218;-56
2022/10/09 08:46:48;;;;;;;4.23;3.00;;;14.30;1.00;;;;;;5048313;28;20452;-54
2022/10/09 08:49:29;;;;;;;4.70;2.70;;;14.40;1.00;;;;;;5051908;28;20897;-55
2022/10/09 08:51:58;;;;;;;5.00;3.23;;;14.40;1.00;;;;;;5049998;28;20447;-53
2022/10/09 08:54:32;;;;;;;6.00;3.00;;;14.60;1.00;;;;;;5050110;28;20450;-57
2022/10/09 08:57:02;;;;;;;8.80;3.80;;;14.80;1.00;;;;;;5049943;28;20462;-54
2022/10/09 08:59:28;;;;;;;5.77;3.57;;;14.90;1.00;;;;;;5049302;28;20574;-55
2022/10/09 09:01:59;;;;;;;5.43;2.73;;;14.90;1.00;;;;;;5049429;28;20542;-54
2022/10/09 09:05:02;;;;;;;4.00;3.40;;;15.10;1.00;;;;;;5050330;28;20501;-54
2022/10/09 09:07:33;;;;;;;3.20;2.87;;;15.20;1.00;;;;;;5050885;28;20461;-54
2022/10/09 09:10:12;;;;;;;4.17;2.80;;;16.00;1.00;;;;;;5048155;28;21213;-55
2022/10/09 09:12:59;;;;;;;4.20;3.10;;;15.70;1.00;;;;;;5047695;28;20495;-54
2022/10/09 09:15:38;;;;;;;6.97;3.07;;;15.90;1.00;;;;;;5049828;28;20410;-55
2022/10/09 09:18:23;;;;;;;4.67;2.60;;;15.90;1.00;;;;;;5042037;28;20429;-55
2022/10/09 09:20:53;;;;;;;4.53;2.80;;;15.80;1.00;;;;;;5049062;28;21334;-56
2022/10/09 09:23:25;;;;;;;8.40;2.97;;;15.70;1.00;;;;;;5057128;28;20487;-56
2022/10/09 09:25:51;;;;;;;3.67;2.50;;;15.70;1.00;;;;;;5050253;28;20422;-55
2022/10/09 09:28:32;;;;;;;4.87;2.47;;;15.70;1.00;;;;;;5054507;28;20426;-55
2022/10/09 09:31:19;;;;;;;6.10;2.60;;;15.80;1.00;;;;;;5047933;28;20200;-54
2022/10/09 09:34:00;;;;;;;5.63;3.00;;;16.10;1.00;;;;;;5049421;28;20459;-54
2022/10/09 09:36:33;;;;;;;5.33;2.30;;;16.30;1.00;;;;;;5052020;28;20418;-55
2022/10/09 09:38:59;;;;;;;4.93;2.63;;;16.60;1.00;;;;;;5049649;28;20773;-55
2022/10/09 09:41:24;;;;;;;11.97;2.70;;;16.80;1.00;;;;;;5054853;28;20415;-55
2022/10/09 09:43:50;;;;;;;5.07;2.50;;;17.00;1.00;;;;;;5051523;28;20216;-54
2022/10/09 09:46:25;;;;;;;8.03;2.67;;;17.10;1.00;;;;;;5054768;28;20192;-54
2022/10/09 09:48:50;;;;;;;4.40;2.27;;;17.20;1.00;;;;;;5049664;28;20185;-56
2022/10/09 09:51:29;;;;;;;4.13;2.40;;;17.20;1.00;;;;;;5050037;28;20593;-56
2022/10/09 09:53:56;;;;;;;6.57;2.50;;;17.20;1.00;;;;;;5052271;28;20280;-55
2022/10/09 09:56:41;;;;;;;6.53;2.20;;;17.20;1.00;;;;;;5052056;28;20415;-54
2022/10/09 09:59:24;;;;;;;6.10;2.50;;;17.10;1.00;;;;;;5050299;28;20550;-54
2022/10/09 10:01:59;;;;;;;7.30;2.40;;;17.20;1.00;;;;;;5044212;28;20494;-54
2022/10/09 10:04:27;;;;;;;6.63;2.40;;;17.10;1.00;;;;;;5048900;28;20955;-55
2022/10/09 10:06:53;;;;;;;5.63;1.93;;;17.10;1.00;;;;;;5045698;28;20458;-55
2022/10/09 10:09:20;;;;;;;4.30;2.07;;;17.20;1.00;;;;;;5046726;28;20774;-57
2022/10/09 10:11:51;;;;;;;3.47;1.50;;;16.50;1.00;;;;;;5042680;28;20481;-54
2022/10/09 10:14:17;;;;;;;5.43;1.50;;;17.40;1.00;;;;;;5046085;28;20430;-54
2022/10/09 10:16:48;;;;;;;4.37;1.50;;;17.30;1.00;;;;;;5045840;28;20750;-55
2022/10/09 10:19:24;;;;;;;5.40;1.83;;;17.50;1.00;;;;;;5070638;28;20984;-53
2022/10/09 10:22:00;;;;;;;2.60;1.40;;;17.60;1.00;;;;;;5051698;28;20502;-56
2022/10/09 10:24:38;;;;;;;3.40;1.70;;;17.90;1.00;;;;;;5047176;28;20421;-52
2022/10/09 10:27:12;;;;;;;3.80;1.60;;;17.90;1.00;;;;;;5049117;28;20525;-55
2022/10/09 10:29:42;;;;;;;3.00;1.60;;;17.90;1.00;;;;;;5053979;28;20551;-53
2022/10/09 10:32:31;;;;;;;2.33;1.33;;;18.00;1.00;;;;;;5053013;28;20563;-53
2022/10/09 10:35:09;;;;;;;4.00;1.30;;;18.00;1.00;;;;;;5050960;28;20989;-52
2022/10/09 10:37:41;;;;;;;3.00;1.27;;;17.70;1.00;;;;;;5048381;28;20506;-55
2022/10/09 10:40:25;;;;;;;5.10;1.83;;;17.50;1.00;;;;;;5053498;28;20550;-55
2022/10/09 10:43:09;;;;;;;5.43;1.87;;;17.50;1.00;;;;;;5049914;28;20478;-56
2022/10/09 10:45:40;;;;;;;3.83;1.97;;;17.60;1.00;;;;;;5060053;28;21024;-53
2022/10/09 10:48:14;;;;;;;5.97;1.20;;;17.80;1.00;;;;;;5053310;28;20443;-55
2022/10/09 10:51:03;;;;;;;4.50;1.60;;;17.90;1.00;;;;;;5054136;28;20454;-53
2022/10/09 10:53:50;;;;;;;3.93;1.50;;;17.80;1.00;;;;;;5060578;28;20474;-54
2022/10/09 10:56:24;;;;;;;3.30;1.90;;;17.80;1.00;;;;;;5052573;28;20874;-57
2022/10/09 10:59:17;;;;;;;3.30;1.30;;;17.90;1.00;;;;;;5051358;28;20775;-57
2022/10/09 11:01:59;;;;;;;3.70;1.80;;;18.20;1.00;;;;;;5050760;28;20425;-53
2022/10/09 11:04:46;;;;;;;5.17;2.13;;;18.20;1.00;;;;;;5050984;28;20464;-55
2022/10/09 11:07:28;;;;;;;14.60;8.03;;;18.30;1.00;;;;;;5057291;28;20417;-56
2022/10/09 11:10:01;;;;;;;16.63;3.60;;;18.20;1.00;;;;;;5051640;28;20946;-54
2022/10/09 11:12:43;;;;;;;5.17;1.20;;;18.20;1.00;;;;;;5052178;28;20467;-57
2022/10/09 11:15:56;;;;;;;7.10;2.20;;;18.30;1.00;;;;;;5052085;28;20448;-53
2022/10/09 11:18:40;;;;;;;5.03;1.30;;;18.30;1.00;;;;;;5030693;28;20422;-55
2022/10/09 11:21:50;;;;;;;3.63;1.13;;;18.30;1.00;;;;;;5050362;28;20794;-55
2022/10/09 11:24:45;;;;;;;4.90;1.33;;;18.40;1.00;;;;;;5011044;28;20797;-55
2022/10/09 11:27:44;;;;;;;3.43;0.87;;;18.40;1.00;;;;;;5010259;28;20896;-56
2022/10/09 11:30:12;;;;;;;2.07;1.20;;;18.30;1.00;;;;;;5046543;28;20418;-53
2022/10/09 11:33:03;;;;;;;2.30;0.90;;;18.50;1.00;;;;;;5053712;28;20986;-56
2022/10/09 11:35:36;;;;;;;4.30;1.23;;;18.60;1.00;;;;;;5038176;28;20441;-54
2022/10/09 11:38:17;;;;;;;5.53;2.23;;;18.70;1.00;;;;;;5040881;28;20431;-53
2022/10/09 11:40:43;;;;;;;2.90;1.20;;;18.60;1.00;;;;;;5038379;28;20515;-53
2022/10/09 11:43:20;;;;;;;5.30;1.83;;;18.60;1.00;;;;;;5038454;28;20453;-53
2022/10/09 11:46:08;;;;;;;3.93;1.60;;;18.40;1.00;;;;;;5039531;28;20194;-54
2022/10/09 11:48:59;;;;;;;3.47;1.60;;;18.20;1.00;;;;;;5040839;28;20430;-53
2022/10/09 11:51:58;;;;;;;5.40;0.77;;;18.10;1.00;;;;;;5048744;28;20476;-57
2022/10/09 11:54:26;;;;;;;2.10;0.97;;;18.30;1.00;;;;;;5051589;28;20928;-54
2022/10/09 11:57:03;;;;;;;4.27;0.70;;;18.50;1.00;;;;;;5054703;28;20413;-52
2022/10/09 11:59:32;;;;;;;4.43;1.10;;;18.40;1.00;;;;;;5033962;28;20439;-54
2022/10/09 12:02:11;;;;;;;3.57;1.03;;;18.30;1.00;;;;;;5034366;28;20466;-55
2022/10/09 12:04:37;;;;;;;2.27;1.53;;;18.30;1.00;;;;;;5033034;28;20728;-55
2022/10/09 12:07:08;;;;;;;2.27;1.20;;;18.30;1.00;;;;;;5050811;28;20507;-56
2022/10/09 12:09:43;;;;;;;2.47;1.00;;;18.30;1.00;;;;;;5057093;28;20192;-53
2022/10/09 12:12:14;;;;;;;3.77;1.30;;;18.30;1.00;;;;;;5052737;28;20433;-54
2022/10/09 12:14:39;;;;;;;4.00;1.30;;;18.40;1.00;;;;;;5053599;28;20418;-55
2022/10/09 12:17:35;;;;;;;2.17;0.90;;;18.30;1.00;;;;;;5051534;28;20491;-55
2022/10/09 12:20:15;;;;;;;3.33;1.30;;;18.30;1.00;;;;;;5053866;28;20193;-53
2022/10/09 12:22:44;;;;;;;3.33;1.30;;;18.50;1.00;;;;;;5050855;28;20523;-55
2022/10/09 12:25:43;;;;;;;2.67;1.00;;;18.70;1.00;;;;;;5051660;28;20452;-55
2022/10/09 12:28:39;;;;;;;3.57;1.27;;;18.80;1.00;;;;;;5047592;28;20509;-56
2022/10/09 12:31:16;;;;;;;2.20;0.90;;;18.90;1.00;;;;;;5047236;28;20474;-54
2022/10/09 12:33:50;;;;;;;4.10;1.00;;;19.00;1.00;;;;;;5047386;28;20796;-55
2022/10/09 12:36:24;;;;;;;3.53;1.10;;;18.90;1.00;;;;;;5051484;28;20458;-53
2022/10/09 12:38:49;;;;;;;3.17;1.03;;;18.90;1.00;;;;;;5048486;28;20480;-54
2022/10/09 12:41:26;;;;;;;3.07;0.97;;;18.90;1.00;;;;;;5039941;28;20425;-53
2022/10/09 12:43:54;;;;;;;1.57;0.80;;;18.80;1.00;;;;;;5046348;28;20222;-55
2022/10/09 12:46:35;;;;;;;1.93;0.90;;;18.80;1.00;;;;;;5049903;28;20585;-55
2022/10/09 12:49:05;;;;;;;2.20;0.83;;;18.70;1.00;;;;;;5049573;28;20448;-54
2022/10/09 12:51:32;;;;;;;2.80;1.10;;;18.70;1.00;;;;;;5048824;28;20793;-56
2022/10/09 12:53:58;;;;;;;2.97;1.10;;;18.70;1.00;;;;;;5050804;28;20444;-53
2022/10/09 12:56:28;;;;;;;5.33;1.20;;;18.70;1.00;;;;;;5050471;28;20440;-52
2022/10/09 12:58:55;;;;;;;3.47;0.90;;;18.80;1.00;;;;;;5049657;28;20413;-55
2022/10/09 13:01:22;;;;;;;4.13;1.20;;;18.70;1.00;;;;;;5046650;28;20441;-56
2022/10/09 13:03:56;;;;;;;2.50;0.93;;;18.70;1.00;;;;;;5051100;28;20406;-56
2022/10/09 13:06:25;;;;;;;3.30;1.13;;;18.60;1.00;;;;;;5038400;28;20456;-56
2022/10/09 13:08:58;;;;;;;3.40;1.40;;;18.70;1.00;;;;;;5035830;28;20551;-55
2022/10/09 13:11:36;;;;;;;1.70;1.20;;;18.70;1.00;;;;;;5039022;28;20417;-53
2022/10/09 13:14:03;;;;;;;3.03;1.13;;;18.70;1.00;;;;;;5043548;28;20421;-53
2022/10/09 13:16:42;;;;;;;2.57;1.40;;;18.80;1.00;;;;;;5043015;28;20504;-56
2022/10/09 13:19:26;;;;;;;5.20;1.83;;;18.80;1.00;;;;;;5043561;28;20412;-56
2022/10/09 13:22:18;;;;;;;2.17;1.27;;;18.90;1.00;;;;;;5047043;28;20421;-54